createdAt,value
2019-01-05T00:04:20.654Z,2.83
2019-01-05T00:09:45.915Z,2.81
2019-01-05T00:15:10.010Z,2.87
2019-01-05T00:20:35.978Z,2.76
2019-01-05T00:26:00.633Z,2.83
2019-01-05T00:31:29.072Z,2.78
2019-01-05T00:37:00.586Z,2.68
2019-01-05T00:42:24.672Z,2.66
2019-01-05T00:47:49.954Z,2.47
2019-01-05T00:53:18.384Z,2.49
2019-01-05T00:58:43.038Z,2.45
2019-01-05T01:04:14.290Z,2.50
2019-01-05T01:09:45.508Z,2.37
2019-01-05T01:15:09.233Z,2.41
2019-01-05T01:20:46.674Z,2.37
2019-01-05T01:26:17.285Z,2.41
2019-01-05T01:31:55.085Z,2.43
2019-01-05T01:37:20.158Z,2.37
2019-01-05T01:42:44.423Z,2.43
2019-01-05T01:48:13.002Z,2.43
2019-01-05T01:53:42.617Z,2.41
2019-01-05T01:59:21.139Z,2.49
2019-01-05T02:05:01.722Z,2.40
2019-01-05T02:10:27.740Z,2.53
2019-01-05T02:15:54.949Z,2.53
2019-01-05T02:21:54.329Z,2.69
2019-01-05T02:28:05.458Z,2.74
2019-01-05T02:34:20.237Z,2.73
2019-01-05T02:40:28.859Z,2.74
2019-01-05T02:46:38.677Z,2.78
2019-01-05T02:52:55.482Z,2.69
2019-01-05T02:59:13.728Z,2.61
2019-01-05T03:05:23.280Z,2.56
2019-01-05T03:11:49.026Z,2.60
2019-01-05T03:17:41.516Z,2.56
2019-01-05T03:23:52.793Z,2.55
2019-01-05T03:30:12.081Z,2.62
2019-01-05T03:36:06.032Z,2.47
2019-01-05T03:42:19.645Z,2.54
2019-01-05T03:48:13.639Z,2.41
2019-01-05T03:54:15.725Z,2.53
2019-01-05T04:00:15.032Z,2.59
2019-01-05T04:06:19.189Z,2.55
2019-01-05T04:12:35.410Z,2.40
2019-01-05T04:18:32.764Z,2.40
2019-01-05T04:24:23.351Z,2.34
2019-01-05T04:30:45.217Z,2.22
2019-01-05T04:36:35.153Z,2.20
2019-01-05T04:43:01.994Z,2.23
2019-01-05T04:49:10.257Z,2.28
2019-01-05T04:55:18.064Z,2.09
2019-01-05T05:01:12.901Z,2.25
2019-01-05T05:07:26.575Z,2.30
2019-01-05T05:13:29.654Z,2.35
2019-01-05T05:19:39.646Z,2.41
2019-01-05T05:26:17.679Z,2.40
2019-01-05T05:32:33.903Z,2.47
2019-01-05T05:39:00.057Z,2.47
2019-01-05T05:45:07.935Z,2.44
2019-01-05T05:51:06.638Z,2.46
2019-01-05T05:57:25.072Z,2.51
2019-01-05T06:03:29.664Z,2.58
2019-01-05T06:09:29.932Z,2.60
2019-01-05T06:15:24.423Z,2.61
2019-01-05T06:21:24.278Z,2.73
2019-01-05T06:27:35.686Z,2.83
2019-01-05T06:33:54.251Z,3.07
2019-01-05T06:40:27.367Z,3.01
2019-01-05T06:46:31.346Z,3.12
2019-01-05T06:52:43.670Z,3.17
2019-01-05T06:58:51.850Z,3.25
2019-01-05T07:05:16.072Z,3.23
2019-01-05T07:11:16.651Z,3.21
2019-01-05T07:17:36.934Z,3.32
2019-01-05T07:24:06.952Z,3.35
2019-01-05T07:30:17.920Z,3.46
2019-01-05T07:36:23.468Z,3.53
2019-01-05T07:42:18.643Z,3.70
2019-01-05T07:48:08.587Z,3.90
2019-01-05T07:54:18.279Z,4.05
2019-01-05T08:00:32.627Z,3.91
2019-01-05T08:06:22.861Z,3.84
2019-01-05T08:12:19.744Z,4.03
2019-01-05T08:18:36.728Z,4.12
2019-01-05T08:24:38.146Z,4.27
2019-01-05T08:30:51.036Z,4.55
2019-01-05T08:37:05.018Z,4.56
2019-01-05T08:43:20.996Z,4.59
2019-01-05T08:49:36.820Z,4.68
2019-01-05T08:55:32.698Z,4.73
2019-01-05T09:01:32.475Z,4.76
2019-01-05T09:07:42.063Z,4.73
2019-01-05T09:13:44.306Z,4.88
2019-01-05T09:19:55.870Z,4.95
2019-01-05T09:26:12.228Z,5.11
2019-01-05T09:32:12.711Z,5.24
2019-01-05T09:38:08.029Z,5.37
2019-01-05T09:44:15.246Z,5.46
2019-01-05T09:50:36.711Z,5.43
2019-01-05T09:56:38.936Z,5.51
2019-01-05T10:02:43.849Z,5.53
2019-01-05T10:08:56.572Z,5.47
2019-01-05T10:14:50.839Z,5.42
2019-01-05T10:20:57.909Z,5.51
2019-01-05T10:27:15.860Z,5.64
2019-01-05T10:33:43.939Z,5.51
2019-01-05T10:39:32.406Z,5.59
2019-01-05T10:45:23.285Z,5.65
2019-01-05T10:51:39.844Z,5.64
2019-01-05T10:57:51.484Z,5.68
2019-01-05T11:04:12.554Z,5.66
2019-01-05T11:10:17.662Z,5.71
2019-01-05T11:16:15.705Z,5.66
2019-01-05T11:22:15.771Z,5.60
2019-01-05T11:28:42.024Z,5.62
2019-01-05T11:34:42.523Z,5.67
2019-01-05T11:40:53.388Z,5.69
2019-01-05T11:46:36.233Z,5.72
2019-01-05T11:53:01.047Z,5.64
2019-01-05T11:59:40.671Z,5.77
2019-01-05T12:05:51.048Z,5.85
2019-01-05T12:11:47.061Z,5.90
2019-01-05T12:17:56.919Z,5.86
2019-01-05T12:24:32.420Z,5.96
2019-01-05T12:30:43.364Z,5.99
2019-01-05T12:36:47.041Z,5.96
2019-01-05T12:42:55.244Z,5.99
2019-01-05T12:49:11.939Z,5.96
2019-01-05T12:55:43.920Z,5.88
2019-01-05T13:01:51.809Z,5.90
2019-01-05T13:07:59.959Z,5.93
2019-01-05T13:14:00.275Z,5.89
2019-01-05T13:20:20.497Z,5.91
2019-01-05T13:26:18.120Z,5.90
2019-01-05T13:32:41.442Z,5.82
2019-01-05T13:38:55.489Z,5.75
2019-01-05T13:45:08.487Z,5.81
2019-01-05T13:51:24.172Z,5.82
2019-01-05T13:57:03.451Z,5.75
2019-01-05T14:02:47.243Z,5.81
2019-01-05T14:08:11.128Z,5.78
2019-01-05T14:13:47.219Z,5.74
2019-01-05T14:19:24.264Z,5.80
2019-01-05T14:24:38.497Z,5.72
2019-01-05T14:30:13.080Z,5.70
2019-01-05T14:35:50.436Z,5.76
2019-01-05T14:41:15.737Z,5.74
2019-01-05T14:46:40.077Z,5.75
2019-01-05T14:52:00.445Z,5.76
2019-01-05T14:57:26.066Z,5.74
2019-01-05T15:02:57.636Z,5.59
2019-01-05T15:08:21.722Z,5.71
2019-01-05T15:13:59.475Z,5.67
2019-01-05T15:19:23.297Z,5.76
2019-01-05T15:24:47.166Z,5.72
2019-01-05T15:30:11.365Z,5.60
2019-01-05T15:35:35.536Z,5.66
2019-01-05T15:41:28.998Z,5.70
2019-01-05T15:47:10.798Z,5.71
2019-01-05T15:52:43.059Z,5.62
2019-01-05T15:58:22.538Z,5.59
2019-01-05T16:03:41.960Z,5.56
2019-01-05T16:09:16.242Z,5.51
2019-01-05T16:14:57.170Z,5.57
2019-01-05T16:20:14.843Z,5.59
2019-01-05T16:25:39.135Z,5.59
2019-01-05T16:31:22.881Z,5.58
2019-01-05T16:36:54.731Z,5.58
2019-01-05T16:42:34.951Z,5.51
2019-01-05T16:47:58.815Z,5.52
2019-01-05T16:53:36.117Z,5.46
2019-01-05T16:59:07.501Z,5.46
2019-01-05T17:04:30.773Z,5.47
2019-01-05T17:09:54.972Z,5.48
2019-01-05T17:15:25.041Z,5.46
2019-01-05T17:20:53.710Z,5.44
2019-01-05T17:26:18.966Z,5.43
2019-01-05T17:31:44.283Z,5.44
2019-01-05T17:37:08.842Z,5.37
2019-01-05T17:42:52.155Z,5.30
2019-01-05T17:48:20.531Z,5.41
2019-01-05T17:53:44.966Z,5.45
2019-01-05T17:59:16.395Z,5.41
2019-01-05T18:04:41.762Z,5.37
2019-01-05T18:10:07.125Z,5.36
2019-01-05T18:15:32.216Z,5.35
2019-01-05T18:20:56.751Z,5.33
2019-01-05T18:26:21.021Z,5.47
2019-01-05T18:31:48.054Z,5.46
2019-01-05T18:37:16.202Z,5.40
2019-01-05T18:42:36.108Z,5.43
2019-01-05T18:48:04.808Z,5.36
2019-01-05T18:53:28.780Z,5.33
2019-01-05T18:58:54.576Z,5.40
2019-01-05T19:04:19.807Z,5.43
2019-01-05T19:10:03.336Z,5.43
2019-01-05T19:15:35.270Z,5.32
2019-01-05T19:21:02.647Z,5.46
2019-01-05T19:26:33.934Z,5.42
2019-01-05T19:31:59.349Z,5.43
2019-01-05T19:37:23.630Z,5.41
2019-01-05T19:43:04.222Z,5.44
2019-01-05T19:48:28.214Z,5.38
2019-01-05T19:53:52.193Z,5.44
2019-01-05T19:59:16.011Z,5.43
2019-01-05T20:04:55.306Z,5.41
2019-01-05T20:10:32.714Z,5.36
2019-01-05T20:15:58.305Z,5.40
2019-01-05T20:21:21.264Z,5.40
2019-01-05T20:26:39.985Z,5.40
2019-01-05T20:32:14.556Z,5.34
2019-01-05T20:37:30.642Z,5.42
2019-01-05T20:42:54.622Z,5.34
2019-01-05T20:48:29.263Z,5.35
2019-01-05T20:53:53.677Z,5.36
2019-01-05T20:59:18.042Z,5.33
2019-01-05T21:04:53.032Z,5.25
2019-01-05T21:10:21.698Z,5.36
2019-01-05T21:15:46.438Z,5.28
2019-01-05T21:21:23.988Z,5.33
2019-01-05T21:26:55.634Z,5.36
2019-01-05T21:32:39.751Z,5.30
2019-01-05T21:38:18.223Z,5.42
2019-01-05T21:43:56.119Z,5.32
2019-01-05T21:49:29.214Z,5.30
2019-01-05T21:54:50.129Z,5.25
2019-01-05T22:00:16.919Z,5.35
2019-01-05T22:05:42.325Z,5.37
2019-01-05T22:11:16.955Z,5.44
2019-01-05T22:16:56.018Z,5.31
2019-01-05T22:22:29.362Z,5.36
2019-01-05T22:28:05.605Z,5.30
2019-01-05T22:33:46.392Z,5.32
2019-01-05T22:39:11.900Z,5.30
2019-01-05T22:44:46.338Z,5.30
2019-01-05T22:50:18.735Z,5.28
2019-01-05T22:55:55.555Z,5.25
2019-01-05T23:01:33.469Z,5.19
2019-01-05T23:07:02.208Z,5.21
2019-01-05T23:12:37.643Z,5.26
2019-01-05T23:18:02.955Z,5.20
2019-01-05T23:23:26.511Z,5.15
2019-01-05T23:28:47.744Z,5.14
2019-01-05T23:34:13.896Z,5.15
2019-01-05T23:39:38.005Z,5.19
2019-01-05T23:45:02.719Z,5.05
2019-01-05T23:50:27.949Z,5.08
2019-01-05T23:56:11.274Z,5.14
